Time;durP1;ratioP1;P1;durP2;ratioP2;P2;SDS_P1;SDS_P2;PMS_P1;PMS_P2;Temp;Humidity;BMP_temperature;BMP_pressure;BME280_temperature;BME280_humidity;BME280_pressure;Samples;Min_cycle;Max_cycle;Signal;HPM_P1;HPM_P2
2021/06/27 00:02:23;;;;;;;11.90;10.70;;;20.40;99.90;;;;;;5086944;28;20949;-82
2021/06/27 00:04:52;;;;;;;11.93;10.73;;;20.40;99.90;;;;;;5079954;28;20545;-83
2021/06/27 00:07:19;;;;;;;11.37;10.33;;;20.40;99.90;;;;;;5074299;28;20466;-82
2021/06/27 00:09:46;;;;;;;11.47;10.23;;;20.30;99.90;;;;;;5077851;28;20799;-82
2021/06/27 00:12:13;;;;;;;10.73;9.73;;;20.30;99.90;;;;;;5079081;28;20492;-82
2021/06/27 00:14:40;;;;;;;10.50;9.40;;;20.30;99.90;;;;;;5077103;28;20486;-82
2021/06/27 00:17:07;;;;;;;11.63;10.40;;;20.30;99.90;;;;;;5084686;28;20461;-82
2021/06/27 00:19:34;;;;;;;13.30;10.90;;;20.20;99.90;;;;;;5075271;28;20794;-82
2021/06/27 00:22:03;;;;;;;11.27;10.17;;;20.20;99.90;;;;;;5077895;28;20479;-82
2021/06/27 00:24:30;;;;;;;11.50;10.40;;;20.20;99.90;;;;;;5077547;28;20471;-82
2021/06/27 00:26:56;;;;;;;12.03;10.80;;;20.20;99.90;;;;;;5070114;28;20471;-82
2021/06/27 00:29:23;;;;;;;13.23;11.67;;;20.20;99.90;;;;;;5071362;28;21001;-82
2021/06/27 00:31:51;;;;;;;12.93;11.67;;;20.20;99.90;;;;;;5081872;28;20478;-82
2021/06/27 00:34:18;;;;;;;12.33;11.07;;;20.20;99.90;;;;;;5081647;28;20476;-82
2021/06/27 00:36:44;;;;;;;11.17;9.70;;;20.20;99.90;;;;;;5078236;28;20458;-83
2021/06/27 00:39:13;;;;;;;12.60;11.40;;;20.20;99.90;;;;;;5080847;28;20464;-82
2021/06/27 00:41:40;;;;;;;13.07;11.83;;;20.10;99.90;;;;;;5080651;28;20463;-82
2021/06/27 00:44:07;;;;;;;11.00;10.00;;;20.10;99.90;;;;;;5085671;28;20552;-82
2021/06/27 00:46:33;;;;;;;10.97;9.90;;;20.00;99.90;;;;;;5082394;28;20854;-82
2021/06/27 00:49:01;;;;;;;11.80;10.40;;;20.00;99.90;;;;;;5072741;28;21046;-82
2021/06/27 00:51:28;;;;;;;12.23;10.93;;;20.00;99.90;;;;;;5074362;28;20489;-82
2021/06/27 00:53:54;;;;;;;11.60;10.50;;;19.90;99.90;;;;;;5081923;28;20487;-82
2021/06/27 00:56:23;;;;;;;11.70;10.60;;;19.90;99.90;;;;;;5077314;28;20461;-82
2021/06/27 00:58:50;;;;;;;12.90;11.60;;;19.90;99.90;;;;;;5075934;28;20471;-82
2021/06/27 01:01:17;;;;;;;12.43;11.07;;;19.90;99.90;;;;;;5077889;28;20572;-82
2021/06/27 01:03:44;;;;;;;12.30;11.00;;;19.90;99.90;;;;;;5077483;28;20496;-83
2021/06/27 01:06:10;;;;;;;12.13;10.93;;;19.80;99.90;;;;;;5076488;28;20863;-82
2021/06/27 01:08:37;;;;;;;18.43;11.13;;;19.80;99.90;;;;;;5079235;28;20822;-81
2021/06/27 01:11:05;;;;;;;12.97;11.67;;;19.80;99.90;;;;;;5078658;28;20541;-82
2021/06/27 01:13:35;;;;;;;11.93;10.73;;;19.80;99.90;;;;;;5087538;28;20501;-82
2021/06/27 01:16:01;;;;;;;11.80;10.60;;;19.80;99.90;;;;;;5082443;28;20464;-82
2021/06/27 01:18:29;;;;;;;12.80;11.43;;;19.80;99.90;;;;;;5083654;28;20461;-82
2021/06/27 01:20:56;;;;;;;14.90;13.30;;;19.80;99.90;;;;;;5080370;28;20473;-82
2021/06/27 01:23:24;;;;;;;16.30;12.67;;;19.80;99.90;;;;;;5083067;28;20486;-82
2021/06/27 01:25:54;;;;;;;17.87;13.30;;;19.80;99.90;;;;;;5088095;28;20473;-82
2021/06/27 01:28:22;;;;;;;15.13;12.97;;;19.80;99.90;;;;;;5071815;28;20792;-82
2021/06/27 01:30:50;;;;;;;13.23;11.80;;;19.80;99.90;;;;;;5085137;28;20518;-82
2021/06/27 01:33:19;;;;;;;16.40;13.23;;;19.70;99.90;;;;;;5084232;28;20496;-82
2021/06/27 01:35:47;;;;;;;15.80;13.10;;;19.70;99.90;;;;;;5085555;28;20544;-81
2021/06/27 01:38:15;;;;;;;15.70;14.20;;;19.70;99.90;;;;;;5087713;28;20950;-82
2021/06/27 01:40:44;;;;;;;15.70;14.20;;;19.80;99.90;;;;;;5083539;28;20470;-82
2021/06/27 01:43:16;;;;;;;17.27;15.17;;;19.80;99.90;;;;;;5076077;28;20493;-82
2021/06/27 01:45:46;;;;;;;17.80;14.07;;;19.80;99.90;;;;;;5080318;28;20548;-82
2021/06/27 01:48:14;;;;;;;15.77;14.20;;;19.80;99.90;;;;;;5082615;28;20453;-83
2021/06/27 01:50:43;;;;;;;14.93;13.37;;;19.70;99.90;;;;;;5076791;28;20458;-82
2021/06/27 01:53:11;;;;;;;15.47;13.90;;;19.70;99.90;;;;;;5078267;28;20491;-82
2021/06/27 01:55:39;;;;;;;15.00;13.50;;;19.70;99.90;;;;;;5077786;28;20457;-82
2021/06/27 01:58:07;;;;;;;15.93;12.10;;;19.60;99.90;;;;;;5081109;28;20461;-82
2021/06/27 02:00:35;;;;;;;14.77;12.53;;;19.60;99.90;;;;;;5084891;28;20803;-82
2021/06/27 02:03:02;;;;;;;14.33;12.93;;;19.50;99.90;;;;;;5081529;28;20477;-82
2021/06/27 02:05:31;;;;;;;14.50;13.00;;;19.50;99.90;;;;;;5079741;28;20623;-82
2021/06/27 02:07:59;;;;;;;18.60;14.27;;;19.50;99.90;;;;;;5075319;28;20466;-82
2021/06/27 02:10:27;;;;;;;14.90;13.50;;;19.50;99.90;;;;;;5079983;28;20463;-82
2021/06/27 02:12:56;;;;;;;16.33;13.70;;;19.60;99.90;;;;;;5078063;28;20579;-82
2021/06/27 02:15:24;;;;;;;14.80;13.30;;;19.50;99.90;;;;;;5079318;28;20564;-82
2021/06/27 02:17:54;;;;;;;21.50;12.90;;;19.50;99.90;;;;;;5083514;28;20469;-82
2021/06/27 02:20:22;;;;;;;14.27;12.87;;;19.50;99.90;;;;;;5079757;28;20559;-82
2021/06/27 02:22:49;;;;;;;14.53;13.00;;;19.50;99.90;;;;;;5083284;28;20473;-82
2021/06/27 02:25:16;;;;;;;13.33;12.00;;;19.50;99.90;;;;;;5083479;28;20474;-82
2021/06/27 02:27:43;;;;;;;13.53;12.07;;;19.40;99.90;;;;;;5082175;28;21014;-83
2021/06/27 02:30:12;;;;;;;14.13;12.73;;;19.40;99.90;;;;;;5080932;28;21033;-82
2021/06/27 02:32:41;;;;;;;13.77;12.27;;;19.30;99.90;;;;;;5080604;28;20480;-82
2021/06/27 02:35:10;;;;;;;13.77;12.37;;;19.30;99.90;;;;;;5076941;28;20455;-83
2021/06/27 02:37:38;;;;;;;17.40;13.00;;;19.20;99.90;;;;;;5077109;28;21029;-82
2021/06/27 02:40:07;;;;;;;13.83;12.43;;;19.20;99.90;;;;;;5080774;28;20465;-82
2021/06/27 02:42:34;;;;;;;15.63;13.10;;;19.20;99.90;;;;;;5078879;28;20465;-82
2021/06/27 02:45:01;;;;;;;14.37;12.90;;;19.20;99.90;;;;;;5081216;28;20544;-82
2021/06/27 02:47:28;;;;;;;15.13;12.67;;;19.20;99.90;;;;;;5081817;28;20560;-82
2021/06/27 02:49:56;;;;;;;16.30;13.40;;;19.10;99.90;;;;;;5076004;28;20467;-82
2021/06/27 02:52:23;;;;;;;14.20;12.70;;;19.10;99.90;;;;;;5078392;28;20485;-82
2021/06/27 02:54:50;;;;;;;16.60;12.70;;;19.10;99.90;;;;;;5078871;28;20454;-82
2021/06/27 02:57:17;;;;;;;14.27;12.97;;;19.00;99.90;;;;;;5086238;28;20550;-82
2021/06/27 02:59:44;;;;;;;16.33;12.30;;;19.00;99.90;;;;;;5084746;28;20552;-82
2021/06/27 03:02:11;;;;;;;15.33;12.77;;;19.00;99.90;;;;;;5081150;28;21061;-82
2021/06/27 03:04:38;;;;;;;15.80;13.00;;;18.90;99.90;;;;;;5079948;28;20467;-83
2021/06/27 03:07:06;;;;;;;14.10;12.70;;;18.90;99.90;;;;;;5077786;28;20461;-82
2021/06/27 03:09:33;;;;;;;13.93;12.67;;;18.90;99.90;;;;;;5082835;28;20457;-82
2021/06/27 03:12:00;;;;;;;15.30;13.70;;;18.90;99.90;;;;;;5077577;28;20476;-82
2021/06/27 03:14:27;;;;;;;13.80;12.43;;;18.90;99.90;;;;;;5082449;28;20996;-82
2021/06/27 03:16:54;;;;;;;13.90;12.50;;;18.90;99.90;;;;;;5077293;28;20475;-83
2021/06/27 03:19:21;;;;;;;15.30;12.50;;;18.90;99.90;;;;;;5080555;28;20464;-83
2021/06/27 03:21:48;;;;;;;15.23;13.63;;;18.90;99.90;;;;;;5078909;28;20486;-82
2021/06/27 03:24:16;;;;;;;13.60;11.57;;;18.90;99.90;;;;;;5082567;28;20460;-82
2021/06/27 03:26:43;;;;;;;14.93;11.87;;;18.90;99.90;;;;;;5075423;28;20487;-83
2021/06/27 03:29:10;;;;;;;16.00;13.10;;;18.90;99.90;;;;;;5086198;28;20581;-82
2021/06/27 03:31:37;;;;;;;14.43;10.83;;;18.90;99.90;;;;;;5083726;28;20465;-82
2021/06/27 03:34:04;;;;;;;17.60;11.60;;;18.90;99.90;;;;;;5078704;28;20848;-83
2021/06/27 03:36:31;;;;;;;13.90;11.27;;;18.90;99.90;;;;;;5081014;28;21006;-82
2021/06/27 03:39:03;;;;;;;15.87;11.17;;;18.90;99.90;;;;;;5078190;28;20535;-82
2021/06/27 03:41:39;;;;;;;14.93;12.13;;;18.90;99.90;;;;;;5085388;28;20638;-83
2021/06/27 03:44:06;;;;;;;14.70;13.27;;;18.90;99.90;;;;;;5081014;28;20717;-83
2021/06/27 03:46:33;;;;;;;14.33;12.83;;;18.90;99.90;;;;;;5078621;28;20477;-82
2021/06/27 03:49:00;;;;;;;15.97;14.37;;;18.90;99.90;;;;;;5082281;28;20469;-82
2021/06/27 03:51:27;;;;;;;18.57;14.30;;;18.90;99.90;;;;;;5080683;28;20827;-82
2021/06/27 03:53:54;;;;;;;16.57;13.87;;;18.90;99.90;;;;;;5077716;28;20577;-82
2021/06/27 03:56:21;;;;;;;18.87;14.93;;;18.90;99.90;;;;;;5074246;28;20755;-82
2021/06/27 03:58:50;;;;;;;18.20;14.20;;;18.90;99.90;;;;;;5074480;28;20831;-82
2021/06/27 04:01:18;;;;;;;16.17;14.20;;;18.90;99.90;;;;;;5073430;28;20538;-82
2021/06/27 04:03:45;;;;;;;18.27;13.37;;;18.90;99.90;;;;;;5083910;28;20811;-82
2021/06/27 04:06:11;;;;;;;21.50;14.70;;;19.00;99.90;;;;;;5077167;28;20458;-82
2021/06/27 04:08:39;;;;;;;17.87;14.37;;;19.00;99.90;;;;;;5078720;28;20982;-82
2021/06/27 04:11:05;;;;;;;23.83;13.77;;;19.10;99.90;;;;;;5078402;28;21034;-82
2021/06/27 04:13:35;;;;;;;15.03;13.53;;;19.10;99.90;;;;;;5081290;28;20496;-82
2021/06/27 04:16:04;;;;;;;17.53;14.50;;;19.20;99.90;;;;;;5084750;28;20837;-82
2021/06/27 04:18:32;;;;;;;16.50;12.57;;;19.20;99.90;;;;;;5082483;28;20469;-82
2021/06/27 04:20:59;;;;;;;15.77;12.07;;;19.20;99.90;;;;;;5073590;28;20461;-81
2021/06/27 04:23:29;;;;;;;15.50;13.23;;;19.20;99.90;;;;;;5077777;28;20495;-82
2021/06/27 04:25:56;;;;;;;20.53;13.43;;;19.30;99.90;;;;;;5078264;28;20469;-82
2021/06/27 04:28:23;;;;;;;15.90;13.60;;;19.30;99.90;;;;;;5080567;28;21003;-82
2021/06/27 04:30:51;;;;;;;16.03;13.40;;;19.30;99.90;;;;;;5078362;28;20900;-82
2021/06/27 04:33:19;;;;;;;17.27;14.40;;;19.30;99.90;;;;;;5078523;28;20500;-82
2021/06/27 04:35:46;;;;;;;17.30;13.60;;;19.30;99.90;;;;;;5079688;28;20468;-82
2021/06/27 04:38:17;;;;;;;20.27;14.07;;;19.30;99.90;;;;;;5075933;28;20488;-82
2021/06/27 04:40:44;;;;;;;15.63;13.43;;;19.30;99.90;;;;;;5077463;28;20561;-82
2021/06/27 04:43:12;;;;;;;15.23;13.50;;;19.30;99.90;;;;;;5079981;28;20459;-83
2021/06/27 04:45:40;;;;;;;22.20;14.23;;;19.30;99.90;;;;;;5082433;28;20462;-82
2021/06/27 04:48:08;;;;;;;14.37;12.97;;;19.30;99.90;;;;;;5082670;28;20471;-83
2021/06/27 04:50:37;;;;;;;14.70;10.90;;;19.30;99.90;;;;;;5078494;28;20937;-82
2021/06/27 04:53:05;;;;;;;11.00;10.00;;;19.40;99.90;;;;;;5072251;28;20897;-82
2021/06/27 04:55:31;;;;;;;13.20;9.93;;;19.50;99.90;;;;;;5081523;28;20547;-82
2021/06/27 04:57:58;;;;;;;13.30;10.60;;;19.50;99.90;;;;;;5082419;28;20469;-82
2021/06/27 05:00:25;;;;;;;11.00;9.37;;;19.60;99.90;;;;;;5088168;28;20457;-81
2021/06/27 05:02:52;;;;;;;12.60;10.53;;;19.60;99.90;;;;;;5080751;28;20464;-82
2021/06/27 05:05:19;;;;;;;12.23;11.07;;;19.70;99.90;;;;;;5076687;28;20980;-83
2021/06/27 05:07:47;;;;;;;15.20;12.23;;;19.70;99.90;;;;;;5072047;28;20469;-82
2021/06/27 05:10:15;;;;;;;16.23;13.47;;;19.80;99.90;;;;;;5080779;28;20462;-82
2021/06/27 05:12:42;;;;;;;15.70;12.70;;;19.90;99.90;;;;;;5075066;28;20540;-82
2021/06/27 05:15:10;;;;;;;15.50;13.80;;;19.90;99.90;;;;;;5080635;28;20493;-83
2021/06/27 05:17:37;;;;;;;16.87;14.60;;;19.90;99.90;;;;;;5075787;28;20457;-83
2021/06/27 05:20:05;;;;;;;14.97;13.30;;;20.00;99.90;;;;;;5074758;28;20972;-82
2021/06/27 05:22:32;;;;;;;16.43;13.40;;;20.00;99.90;;;;;;5079930;28;20812;-82
2021/06/27 05:25:01;;;;;;;16.20;14.50;;;20.10;99.90;;;;;;5080714;28;20809;-82
2021/06/27 05:27:28;;;;;;;18.47;13.13;;;20.10;99.90;;;;;;5079841;28;20465;-82
2021/06/27 05:29:55;;;;;;;17.97;13.03;;;20.10;99.90;;;;;;5077547;28;20763;-83
2021/06/27 05:32:21;;;;;;;21.83;14.03;;;20.20;99.90;;;;;;5081025;28;20468;-83
2021/06/27 05:34:48;;;;;;;15.53;11.37;;;20.20;99.90;;;;;;5075875;28;20499;-83
2021/06/27 05:37:15;;;;;;;14.60;11.40;;;20.30;99.90;;;;;;5077868;28;20469;-83
2021/06/27 05:39:43;;;;;;;13.03;11.73;;;20.30;99.90;;;;;;5080191;28;20960;-82
2021/06/27 05:42:11;;;;;;;12.03;10.83;;;20.40;99.90;;;;;;5078177;28;20544;-82
2021/06/27 05:44:38;;;;;;;11.57;10.23;;;20.50;99.90;;;;;;5086208;28;20523;-82
2021/06/27 05:47:05;;;;;;;13.40;11.60;;;20.50;99.90;;;;;;5081503;28;21044;-82
2021/06/27 05:49:32;;;;;;;10.90;9.80;;;20.60;99.90;;;;;;5077970;28;20522;-83
2021/06/27 05:51:59;;;;;;;13.77;10.87;;;20.70;99.90;;;;;;5076600;28;20794;-83
2021/06/27 05:54:26;;;;;;;10.77;9.77;;;20.70;99.90;;;;;;5078530;28;20497;-82
2021/06/27 05:56:53;;;;;;;11.87;10.63;;;20.80;99.90;;;;;;5076997;28;20454;-82
2021/06/27 05:59:22;;;;;;;11.90;10.70;;;20.80;99.90;;;;;;5080142;28;20461;-83
2021/06/27 06:01:49;;;;;;;13.60;12.10;;;20.90;99.90;;;;;;5080525;28;20577;-83
2021/06/27 06:04:16;;;;;;;10.63;9.53;;;21.00;99.90;;;;;;5083249;28;20904;-83
2021/06/27 06:06:42;;;;;;;12.20;9.53;;;21.00;99.90;;;;;;5081232;28;20772;-82
2021/06/27 06:09:09;;;;;;;11.13;10.00;;;21.10;99.90;;;;;;5079532;28;20458;-82
2021/06/27 06:11:36;;;;;;;11.23;9.80;;;21.10;99.90;;;;;;5089180;28;20560;-82
2021/06/27 06:14:03;;;;;;;13.30;9.60;;;21.20;99.90;;;;;;5085784;28;21077;-83
2021/06/27 06:16:32;;;;;;;13.03;9.80;;;21.30;99.90;;;;;;5079816;28;21032;-83
2021/06/27 06:18:59;;;;;;;11.20;9.93;;;21.30;99.90;;;;;;5079539;28;20553;-83
2021/06/27 06:21:26;;;;;;;10.70;9.73;;;21.40;99.90;;;;;;5080982;28;20454;-83
2021/06/27 06:23:53;;;;;;;10.50;9.10;;;21.50;99.90;;;;;;5085183;28;20489;-83
2021/06/27 06:26:20;;;;;;;11.17;9.80;;;21.50;99.90;;;;;;5090274;28;21009;-82
2021/06/27 06:28:47;;;;;;;9.97;8.97;;;21.60;99.90;;;;;;5074661;28;20461;-82
2021/06/27 06:31:14;;;;;;;10.03;8.80;;;21.60;99.90;;;;;;5080901;28;20835;-82
2021/06/27 06:33:42;;;;;;;10.73;9.20;;;21.60;99.90;;;;;;5080132;28;20478;-83
2021/06/27 06:36:09;;;;;;;10.97;9.70;;;21.60;99.90;;;;;;5074841;28;21057;-82
2021/06/27 06:38:36;;;;;;;9.10;8.20;;;21.70;99.90;;;;;;5080875;28;20532;-83
2021/06/27 06:41:03;;;;;;;9.93;8.90;;;21.70;99.90;;;;;;5076770;28;20701;-83
2021/06/27 06:43:30;;;;;;;10.10;8.80;;;21.80;99.90;;;;;;5076073;28;20833;-82
2021/06/27 06:45:57;;;;;;;9.57;8.77;;;21.80;99.90;;;;;;5080119;28;20549;-83
2021/06/27 06:48:24;;;;;;;10.60;8.30;;;21.80;99.90;;;;;;5079005;28;20568;-83
2021/06/27 06:50:52;;;;;;;11.80;10.07;;;21.90;99.90;;;;;;5081500;28;20963;-83
2021/06/27 06:53:19;;;;;;;9.40;8.60;;;22.00;99.90;;;;;;5077968;28;21022;-83
2021/06/27 06:55:46;;;;;;;9.70;8.37;;;22.00;99.90;;;;;;5081772;28;20464;-83
2021/06/27 06:58:13;;;;;;;10.00;9.00;;;22.00;99.90;;;;;;5078359;28;20472;-83
2021/06/27 07:00:40;;;;;;;11.03;8.80;;;22.00;99.90;;;;;;5083770;28;20492;-83
2021/06/27 07:03:08;;;;;;;12.60;9.40;;;22.10;99.90;;;;;;5080405;28;20933;-83
2021/06/27 07:05:35;;;;;;;10.67;8.50;;;22.10;99.90;;;;;;5077235;28;20523;-82
2021/06/27 07:08:04;;;;;;;18.03;9.93;;;22.10;99.90;;;;;;5078580;28;20540;-83
2021/06/27 07:10:31;;;;;;;9.60;8.73;;;22.20;99.90;;;;;;5077502;28;20515;-83
2021/06/27 07:12:58;;;;;;;10.53;8.83;;;22.20;99.90;;;;;;5074532;28;20490;-83
2021/06/27 07:15:25;;;;;;;13.00;9.67;;;22.20;99.90;;;;;;5078659;28;20473;-82
2021/06/27 07:17:52;;;;;;;9.53;8.63;;;22.30;99.90;;;;;;5080280;28;20465;-83
2021/06/27 07:20:19;;;;;;;9.50;8.30;;;22.40;99.90;;;;;;5083641;28;20463;-82
2021/06/27 07:22:46;;;;;;;9.60;8.20;;;22.50;99.90;;;;;;5082210;28;20945;-83
2021/06/27 07:25:15;;;;;;;12.13;9.20;;;22.50;99.90;;;;;;5083797;28;20949;-83
2021/06/27 07:27:42;;;;;;;10.70;9.60;;;22.60;99.90;;;;;;5079976;28;20454;-83
2021/06/27 07:30:10;;;;;;;10.03;8.47;;;22.70;99.90;;;;;;5078139;28;20453;-83
2021/06/27 07:32:37;;;;;;;9.80;8.90;;;22.80;99.90;;;;;;5070108;28;20500;-83
2021/06/27 07:35:06;;;;;;;9.73;8.80;;;22.80;99.90;;;;;;5082664;28;20547;-83
2021/06/27 07:37:33;;;;;;;10.10;9.10;;;22.90;99.90;;;;;;5080205;28;20469;-83
2021/06/27 07:40:00;;;;;;;10.27;9.17;;;23.00;99.90;;;;;;5080067;28;20454;-82
2021/06/27 07:42:28;;;;;;;9.67;8.80;;;23.10;99.90;;;;;;5074068;28;20469;-83
2021/06/27 07:44:55;;;;;;;9.40;8.50;;;23.20;99.90;;;;;;5081003;28;20476;-82
2021/06/27 07:47:22;;;;;;;9.80;8.90;;;23.30;99.90;;;;;;5080755;28;21003;-83
2021/06/27 07:49:49;;;;;;;9.00;8.10;;;23.40;99.90;;;;;;5083546;28;20964;-82
2021/06/27 07:52:16;;;;;;;9.37;8.43;;;23.50;99.90;;;;;;5076890;28;20465;-83
2021/06/27 07:54:43;;;;;;;8.40;7.57;;;23.50;99.90;;;;;;5072794;28;20699;-83
2021/06/27 07:57:10;;;;;;;9.43;8.30;;;23.60;99.90;;;;;;5078494;28;21099;-83
2021/06/27 07:59:38;;;;;;;11.00;8.10;;;23.70;99.90;;;;;;5077043;28;20461;-83
2021/06/27 08:02:05;;;;;;;10.00;7.93;;;23.80;99.90;;;;;;5081091;28;20913;-83
2021/06/27 08:04:32;;;;;;;14.33;8.90;;;24.00;99.90;;;;;;5082879;28;20468;-84
2021/06/27 08:06:59;;;;;;;9.77;8.77;;;24.10;99.90;;;;;;5080384;28;20466;-83
2021/06/27 08:09:35;;;;;;;9.30;8.10;;;24.20;99.90;;;;;;5078821;28;20465;-88
2021/06/27 08:12:02;;;;;;;14.27;8.70;;;24.30;99.90;;;;;;5077864;28;21113;-83
2021/06/27 08:14:29;;;;;;;7.90;7.17;;;24.40;99.90;;;;;;5075717;28;20515;-83
2021/06/27 08:16:57;;;;;;;8.30;7.50;;;24.50;99.90;;;;;;5079142;28;20465;-84
2021/06/27 08:19:24;;;;;;;12.83;7.73;;;24.60;99.90;;;;;;5072163;28;20462;-84
2021/06/27 08:21:51;;;;;;;9.30;8.30;;;24.60;99.90;;;;;;5081209;28;20481;-83
2021/06/27 08:24:18;;;;;;;8.97;8.03;;;24.80;99.90;;;;;;5075213;28;20454;-83
2021/06/27 08:26:45;;;;;;;9.03;8.10;;;24.80;99.90;;;;;;5076234;28;20901;-83
2021/06/27 08:29:12;;;;;;;8.60;7.70;;;24.90;99.90;;;;;;5075109;28;21049;-83
2021/06/27 08:31:39;;;;;;;8.80;7.90;;;25.00;99.90;;;;;;5079852;28;20468;-84
2021/06/27 08:34:07;;;;;;;9.40;8.40;;;25.10;99.90;;;;;;5070083;28;20493;-83
2021/06/27 08:36:34;;;;;;;11.00;8.50;;;25.20;99.90;;;;;;5080082;28;20465;-84
2021/06/27 08:39:01;;;;;;;9.07;7.73;;;25.30;99.90;;;;;;5077476;28;21021;-83
2021/06/27 08:41:28;;;;;;;10.83;7.70;;;25.40;99.90;;;;;;5077408;28;21029;-84
2021/06/27 08:43:57;;;;;;;8.47;7.60;;;25.50;99.90;;;;;;5078960;28;20891;-84
2021/06/27 08:46:25;;;;;;;9.37;8.57;;;25.60;99.90;;;;;;5083781;28;20454;-83
2021/06/27 08:48:54;;;;;;;8.60;7.80;;;25.60;99.90;;;;;;5079895;28;20457;-83
2021/06/27 08:51:22;;;;;;;9.37;8.47;;;25.70;99.90;;;;;;5079532;28;20464;-82
2021/06/27 08:53:52;;;;;;;9.53;8.17;;;25.80;99.90;;;;;;5079564;28;20461;-82
2021/06/27 08:56:19;;;;;;;9.23;8.33;;;25.80;99.90;;;;;;5076814;28;20465;-82
2021/06/27 08:58:47;;;;;;;8.80;7.60;;;25.90;99.90;;;;;;5081012;28;20900;-82
2021/06/27 09:01:15;;;;;;;8.90;8.10;;;26.00;99.90;;;;;;5075474;28;20478;-82
2021/06/27 09:03:44;;;;;;;9.43;8.07;;;26.10;99.90;;;;;;5076655;28;20515;-83
2021/06/27 09:06:11;;;;;;;8.17;7.43;;;26.10;99.90;;;;;;5068979;28;20483;-82
2021/06/27 09:08:39;;;;;;;9.87;7.27;;;26.20;99.70;;;;;;5076732;28;20950;-82
2021/06/27 09:11:14;;;;;;;7.80;7.03;;;26.30;99.60;;;;;;5080017;28;20466;-83
2021/06/27 09:13:43;;;;;;;8.07;7.30;;;26.40;99.40;;;;;;5078120;28;20540;-83
2021/06/27 09:16:28;;;;;;;9.73;7.73;;;26.50;99.70;;;;;;5078835;28;20481;-83
2021/06/27 09:19:00;;;;;;;9.50;6.70;;;26.60;99.20;;;;;;5069581;28;20500;-83
2021/06/27 09:21:27;;;;;;;8.80;6.90;;;26.70;99.10;;;;;;5081813;28;20465;-82
2021/06/27 09:23:55;;;;;;;13.40;8.43;;;26.80;99.00;;;;;;5082704;28;20462;-82
2021/06/27 09:26:28;;;;;;;12.60;7.03;;;26.90;98.50;;;;;;5070552;28;20475;-82
2021/06/27 09:28:55;;;;;;;8.33;7.53;;;26.90;98.40;;;;;;5070047;28;20458;-83
2021/06/27 09:31:39;;;;;;;8.63;7.90;;;27.00;98.20;;;;;;5080333;28;20454;-83
2021/06/27 09:34:08;;;;;;;7.80;7.10;;;27.00;97.80;;;;;;5084808;28;20456;-82
2021/06/27 09:36:39;;;;;;;8.30;7.30;;;27.10;97.80;;;;;;5085629;28;20469;-82
2021/06/27 09:39:13;;;;;;;6.97;6.33;;;27.10;97.60;;;;;;5080871;28;20569;-83
2021/06/27 09:41:52;;;;;;;8.17;7.37;;;27.10;97.70;;;;;;5088731;28;20544;-83
2021/06/27 09:44:20;;;;;;;8.20;7.50;;;27.10;97.70;;;;;;5082014;28;20476;-83
2021/06/27 09:46:50;;;;;;;10.63;7.53;;;27.10;97.80;;;;;;5079455;28;20466;-83
2021/06/27 09:49:19;;;;;;;7.87;7.27;;;27.10;97.90;;;;;;5074025;28;20490;-83
2021/06/27 09:51:51;;;;;;;10.10;7.57;;;27.10;97.90;;;;;;5080650;28;20519;-82
2021/06/27 09:54:21;;;;;;;8.40;7.30;;;27.10;97.80;;;;;;5078030;28;20462;-83
2021/06/27 09:56:49;;;;;;;8.20;7.40;;;27.20;97.70;;;;;;5087446;28;20462;-83
2021/06/27 09:59:17;;;;;;;7.57;6.67;;;27.20;97.60;;;;;;5078880;28;20465;-83
2021/06/27 10:01:44;;;;;;;7.57;6.87;;;27.30;97.60;;;;;;5068365;28;20487;-83
2021/06/27 10:04:14;;;;;;;7.13;6.50;;;27.30;97.30;;;;;;5075078;28;20584;-83
2021/06/27 10:06:52;;;;;;;7.70;7.00;;;27.40;97.00;;;;;;5076729;28;20455;-83
2021/06/27 10:09:22;;;;;;;7.40;6.80;;;27.30;96.00;;;;;;5073810;28;20461;-82
2021/06/27 10:11:58;;;;;;;8.33;6.70;;;27.30;95.90;;;;;;5067001;28;20458;-82
2021/06/27 10:14:27;;;;;;;7.37;6.67;;;27.40;95.90;;;;;;5074122;28;20681;-83
2021/06/27 10:16:56;;;;;;;8.40;7.37;;;27.40;96.00;;;;;;5073284;28;20826;-83
2021/06/27 10:19:23;;;;;;;7.17;6.50;;;27.50;96.00;;;;;;5075773;28;20459;-83
2021/06/27 10:21:51;;;;;;;8.07;6.40;;;27.50;95.80;;;;;;5075554;28;20825;-83
2021/06/27 10:24:20;;;;;;;7.03;6.20;;;27.60;95.90;;;;;;5076898;28;20572;-82
2021/06/27 10:26:48;;;;;;;6.40;5.90;;;27.70;96.00;;;;;;5074330;28;20467;-83
2021/06/27 10:29:15;;;;;;;6.67;6.00;;;27.70;95.70;;;;;;5071873;28;20502;-83
2021/06/27 10:31:42;;;;;;;6.40;5.80;;;27.90;95.40;;;;;;5068232;28;20465;-83
2021/06/27 10:34:09;;;;;;;6.60;6.07;;;27.90;95.00;;;;;;5073809;28;20470;-83
2021/06/27 10:36:40;;;;;;;6.13;5.63;;;28.10;94.70;;;;;;5073716;28;20911;-83
2021/06/27 10:39:10;;;;;;;7.20;6.60;;;28.10;94.00;;;;;;5078140;28;20464;-83
2021/06/27 10:41:59;;;;;;;6.50;6.00;;;28.20;94.00;;;;;;5075138;28;21053;-83
2021/06/27 10:44:27;;;;;;;6.03;5.53;;;28.30;94.20;;;;;;5068779;28;20467;-84
2021/06/27 10:46:57;;;;;;;5.60;5.20;;;28.30;93.70;;;;;;5079142;28;20461;-83
2021/06/27 10:49:52;;;;;;;5.80;5.30;;;28.40;94.10;;;;;;5078698;28;20507;-83
2021/06/27 10:52:19;;;;;;;5.80;5.30;;;28.50;94.00;;;;;;5081580;28;20462;-83
2021/06/27 10:55:16;;;;;;;9.23;5.93;;;28.60;93.30;;;;;;5067551;28;20467;-83
2021/06/27 10:58:06;;;;;;;6.53;6.00;;;28.70;93.40;;;;;;5073577;28;20997;-83
2021/06/27 11:01:02;;;;;;;5.90;5.30;;;28.80;93.20;;;;;;5079458;28;20894;-82
2021/06/27 11:03:38;;;;;;;7.13;6.43;;;28.80;93.00;;;;;;5074722;28;20547;-82
2021/06/27 11:06:06;;;;;;;9.00;6.10;;;28.90;92.90;;;;;;5076772;28;21016;-83
2021/06/27 11:08:40;;;;;;;11.30;7.00;;;28.90;92.90;;;;;;5070230;28;20954;-82
2021/06/27 11:11:14;;;;;;;11.27;5.87;;;29.00;92.50;;;;;;5073627;28;20512;-82
2021/06/27 11:13:45;;;;;;;9.13;7.23;;;29.00;92.40;;;;;;5074721;28;20462;-83
2021/06/27 11:16:18;;;;;;;10.97;7.90;;;29.10;92.60;;;;;;5074669;28;20875;-83
2021/06/27 11:18:48;;;;;;;9.17;6.50;;;29.20;92.20;;;;;;5074326;28;20469;-82
2021/06/27 11:21:33;;;;;;;6.93;5.70;;;29.20;92.00;;;;;;5075284;28;20542;-82
2021/06/27 11:24:03;;;;;;;10.73;6.70;;;29.30;91.90;;;;;;5076384;28;20535;-83
2021/06/27 11:27:03;;;;;;;7.33;6.63;;;29.30;91.90;;;;;;5073410;28;20472;-83
2021/06/27 11:29:48;;;;;;;12.00;6.10;;;29.40;92.10;;;;;;5072040;28;21090;-82
2021/06/27 11:32:47;;;;;;;8.77;6.60;;;29.50;92.30;;;;;;5077479;28;20559;-83
2021/06/27 11:35:40;;;;;;;8.10;7.00;;;29.50;92.30;;;;;;5070127;28;20542;-83
2021/06/27 11:38:08;;;;;;;9.40;6.97;;;29.40;91.20;;;;;;5071576;28;20514;-84
2021/06/27 11:40:49;;;;;;;11.20;7.30;;;29.30;91.40;;;;;;5071881;28;20462;-83
2021/06/27 11:43:17;;;;;;;7.80;6.53;;;29.40;91.60;;;;;;5072977;28;20542;-84
2021/06/27 11:45:52;;;;;;;9.43;6.63;;;29.40;91.70;;;;;;5076287;28;20837;-83
2021/06/27 11:48:21;;;;;;;9.23;6.33;;;29.40;91.70;;;;;;5068347;28;20461;-84
2021/06/27 11:50:53;;;;;;;8.13;5.83;;;29.50;91.60;;;;;;5075723;28;20469;-82
2021/06/27 11:53:25;;;;;;;9.97;6.80;;;29.50;91.30;;;;;;5070947;28;21225;-82
2021/06/27 11:56:07;;;;;;;9.53;6.43;;;29.40;91.20;;;;;;5075518;28;20482;-83
2021/06/27 11:58:34;;;;;;;16.00;6.30;;;29.40;91.40;;;;;;5076586;28;20461;-82
2021/06/27 12:01:08;;;;;;;7.60;6.80;;;29.50;91.40;;;;;;5082898;28;20797;-82
2021/06/27 12:03:46;;;;;;;7.27;6.13;;;29.60;91.50;;;;;;5070851;28;20462;-82
2021/06/27 12:06:13;;;;;;;8.77;6.00;;;29.70;90.90;;;;;;5073454;28;20455;-83
2021/06/27 12:08:44;;;;;;;6.60;5.90;;;29.70;90.90;;;;;;5075298;28;21366;-83
2021/06/27 12:11:11;;;;;;;11.00;6.80;;;29.80;91.00;;;;;;5079052;28;20492;-82
2021/06/27 12:13:39;;;;;;;8.60;5.53;;;29.90;91.20;;;;;;5076760;28;20458;-83
2021/06/27 12:16:08;;;;;;;7.03;6.27;;;30.00;91.20;;;;;;5078363;28;20493;-83
2021/06/27 12:18:36;;;;;;;5.63;5.13;;;30.10;90.80;;;;;;5074917;28;20458;-83
2021/06/27 12:21:07;;;;;;;11.10;6.80;;;30.10;90.30;;;;;;5070237;28;20454;-82
2021/06/27 12:23:36;;;;;;;6.67;5.43;;;29.90;90.00;;;;;;5069218;28;20490;-82
2021/06/27 12:26:05;;;;;;;5.73;5.23;;;29.80;90.00;;;;;;5077712;28;20457;-82
2021/06/27 12:28:35;;;;;;;5.33;4.93;;;30.00;90.00;;;;;;5075194;28;20458;-82
2021/06/27 12:31:08;;;;;;;6.13;5.10;;;30.00;89.20;;;;;;5072188;28;20465;-83
2021/06/27 12:33:38;;;;;;;5.90;5.40;;;30.20;89.50;;;;;;5071294;28;20490;-82
2021/06/27 12:36:08;;;;;;;5.40;5.00;;;30.30;89.00;;;;;;5073958;28;20956;-83
2021/06/27 12:38:36;;;;;;;5.67;5.17;;;30.20;88.60;;;;;;5073526;28;20512;-82
2021/06/27 12:41:04;;;;;;;5.57;5.17;;;30.00;88.40;;;;;;5070690;28;20473;-83
2021/06/27 12:43:43;;;;;;;5.40;4.90;;;29.80;88.90;;;;;;5073144;28;20564;-83
2021/06/27 12:46:29;;;;;;;7.37;5.77;;;29.60;89.40;;;;;;5076544;28;20553;-82